sensor_id;sensor_type;location;lat;lon;timestamp;P1;durP1;ratioP1;P2;durP2;ratioP2
14611;SDS011;7392;52.078;11.650;2023-04-25T00:00:23;4.13;;;2.13;;
14611;SDS011;7392;52.078;11.650;2023-04-25T00:02:56;2.40;;;2.20;;
14611;SDS011;7392;52.078;11.650;2023-04-25T00:05:33;2.33;;;1.77;;
14611;SDS011;7392;52.078;11.650;2023-04-25T00:08:08;2.80;;;1.93;;
14611;SDS011;7392;52.078;11.650;2023-04-25T00:10:41;2.57;;;2.30;;
14611;SDS011;7392;52.078;11.650;2023-04-25T00:13:12;3.57;;;1.90;;
14611;SDS011;7392;52.078;11.650;2023-04-25T00:15:41;2.23;;;1.83;;
14611;SDS011;7392;52.078;11.650;2023-04-25T00:18:08;1.70;;;1.60;;
14611;SDS011;7392;52.078;11.650;2023-04-25T00:20:37;1.97;;;1.80;;
14611;SDS011;7392;52.078;11.650;2023-04-25T00:23:05;2.73;;;1.80;;
14611;SDS011;7392;52.078;11.650;2023-04-25T00:25:33;2.33;;;1.93;;
14611;SDS011;7392;52.078;11.650;2023-04-25T00:28:01;2.53;;;1.93;;
14611;SDS011;7392;52.078;11.650;2023-04-25T00:30:28;2.73;;;1.70;;
14611;SDS011;7392;52.078;11.650;2023-04-25T00:32:58;2.77;;;1.97;;
14611;SDS011;7392;52.078;11.650;2023-04-25T00:35:25;2.10;;;1.77;;
14611;SDS011;7392;52.078;11.650;2023-04-25T00:37:53;4.10;;;2.50;;
14611;SDS011;7392;52.078;11.650;2023-04-25T00:40:21;3.33;;;2.43;;
14611;SDS011;7392;52.078;11.650;2023-04-25T00:42:50;3.83;;;2.30;;
14611;SDS011;7392;52.078;11.650;2023-04-25T00:45:19;2.93;;;2.23;;
14611;SDS011;7392;52.078;11.650;2023-04-25T00:47:47;3.90;;;2.30;;
14611;SDS011;7392;52.078;11.650;2023-04-25T00:50:19;2.80;;;1.97;;
14611;SDS011;7392;52.078;11.650;2023-04-25T00:52:47;2.77;;;2.20;;
14611;SDS011;7392;52.078;11.650;2023-04-25T00:55:15;4.00;;;2.70;;
14611;SDS011;7392;52.078;11.650;2023-04-25T00:57:44;5.90;;;3.30;;
14611;SDS011;7392;52.078;11.650;2023-04-25T01:00:13;3.30;;;2.87;;
14611;SDS011;7392;52.078;11.650;2023-04-25T01:02:42;3.33;;;3.00;;
14611;SDS011;7392;52.078;11.650;2023-04-25T01:05:11;4.20;;;2.80;;
14611;SDS011;7392;52.078;11.650;2023-04-25T01:07:41;4.50;;;2.77;;
14611;SDS011;7392;52.078;11.650;2023-04-25T01:10:12;4.10;;;2.83;;
14611;SDS011;7392;52.078;11.650;2023-04-25T01:12:40;5.30;;;3.10;;
14611;SDS011;7392;52.078;11.650;2023-04-25T01:15:08;3.57;;;3.00;;
14611;SDS011;7392;52.078;11.650;2023-04-25T01:17:36;6.27;;;3.77;;
14611;SDS011;7392;52.078;11.650;2023-04-25T01:20:06;4.77;;;3.43;;
14611;SDS011;7392;52.078;11.650;2023-04-25T01:22:37;4.47;;;3.47;;
14611;SDS011;7392;52.078;11.650;2023-04-25T01:25:05;3.43;;;3.13;;
14611;SDS011;7392;52.078;11.650;2023-04-25T01:27:35;5.60;;;3.90;;
14611;SDS011;7392;52.078;11.650;2023-04-25T01:30:03;6.03;;;3.80;;
14611;SDS011;7392;52.078;11.650;2023-04-25T01:32:33;5.77;;;3.60;;
14611;SDS011;7392;52.078;11.650;2023-04-25T01:35:05;4.57;;;3.37;;
14611;SDS011;7392;52.078;11.650;2023-04-25T01:37:35;5.77;;;3.63;;
14611;SDS011;7392;52.078;11.650;2023-04-25T01:40:05;4.67;;;3.47;;
14611;SDS011;7392;52.078;11.650;2023-04-25T01:42:35;5.13;;;3.40;;
14611;SDS011;7392;52.078;11.650;2023-04-25T01:45:03;5.07;;;3.17;;
14611;SDS011;7392;52.078;11.650;2023-04-25T01:47:37;5.43;;;4.27;;
14611;SDS011;7392;52.078;11.650;2023-04-25T01:50:08;8.80;;;3.93;;
14611;SDS011;7392;52.078;11.650;2023-04-25T01:52:41;7.47;;;4.37;;
14611;SDS011;7392;52.078;11.650;2023-04-25T01:55:11;5.27;;;3.43;;
14611;SDS011;7392;52.078;11.650;2023-04-25T01:57:57;5.10;;;3.47;;
14611;SDS011;7392;52.078;11.650;2023-04-25T02:00:52;5.23;;;3.70;;
14611;SDS011;7392;52.078;11.650;2023-04-25T02:03:22;8.17;;;3.80;;
14611;SDS011;7392;52.078;11.650;2023-04-25T02:05:50;8.20;;;3.93;;
14611;SDS011;7392;52.078;11.650;2023-04-25T02:08:20;7.93;;;4.30;;
14611;SDS011;7392;52.078;11.650;2023-04-25T02:10:48;7.67;;;3.80;;
14611;SDS011;7392;52.078;11.650;2023-04-25T02:13:19;6.70;;;3.37;;
14611;SDS011;7392;52.078;11.650;2023-04-25T02:16:02;6.73;;;3.80;;
14611;SDS011;7392;52.078;11.650;2023-04-25T02:18:31;6.43;;;3.90;;
14611;SDS011;7392;52.078;11.650;2023-04-25T02:20:59;6.33;;;3.50;;
14611;SDS011;7392;52.078;11.650;2023-04-25T02:23:29;4.63;;;3.20;;
14611;SDS011;7392;52.078;11.650;2023-04-25T02:25:59;6.40;;;3.83;;
14611;SDS011;7392;52.078;11.650;2023-04-25T02:28:26;7.47;;;3.57;;
14611;SDS011;7392;52.078;11.650;2023-04-25T02:30:54;5.10;;;2.77;;
14611;SDS011;7392;52.078;11.650;2023-04-25T02:33:23;3.77;;;3.00;;
14611;SDS011;7392;52.078;11.650;2023-04-25T02:35:51;4.63;;;3.60;;
14611;SDS011;7392;52.078;11.650;2023-04-25T02:38:20;6.07;;;3.27;;
14611;SDS011;7392;52.078;11.650;2023-04-25T02:40:50;4.50;;;2.80;;
14611;SDS011;7392;52.078;11.650;2023-04-25T02:43:17;3.97;;;2.63;;
14611;SDS011;7392;52.078;11.650;2023-04-25T02:45:45;3.03;;;2.70;;
14611;SDS011;7392;52.078;11.650;2023-04-25T02:48:13;3.10;;;2.67;;
14611;SDS011;7392;52.078;11.650;2023-04-25T02:50:41;4.07;;;2.80;;
14611;SDS011;7392;52.078;11.650;2023-04-25T02:53:08;4.17;;;2.90;;
14611;SDS011;7392;52.078;11.650;2023-04-25T03:02:46;6.03;;;3.40;;
14611;SDS011;7392;52.078;11.650;2023-04-25T03:05:14;3.97;;;3.17;;
14611;SDS011;7392;52.078;11.650;2023-04-25T03:07:43;6.67;;;3.43;;
14611;SDS011;7392;52.078;11.650;2023-04-25T03:10:12;5.97;;;3.67;;
14611;SDS011;7392;52.078;11.650;2023-04-25T03:12:40;5.70;;;3.03;;
14611;SDS011;7392;52.078;11.650;2023-04-25T03:15:09;3.87;;;3.27;;
14611;SDS011;7392;52.078;11.650;2023-04-25T03:17:37;5.37;;;2.90;;
14611;SDS011;7392;52.078;11.650;2023-04-25T03:20:07;4.57;;;3.00;;
14611;SDS011;7392;52.078;11.650;2023-04-25T03:22:36;4.60;;;2.90;;
14611;SDS011;7392;52.078;11.650;2023-04-25T03:25:04;4.00;;;3.03;;
14611;SDS011;7392;52.078;11.650;2023-04-25T03:27:33;4.03;;;2.77;;
14611;SDS011;7392;52.078;11.650;2023-04-25T03:32:55;4.50;;;2.80;;
14611;SDS011;7392;52.078;11.650;2023-04-25T03:35:25;4.07;;;2.60;;
14611;SDS011;7392;52.078;11.650;2023-04-25T03:37:53;3.47;;;2.53;;
14611;SDS011;7392;52.078;11.650;2023-04-25T03:40:27;3.97;;;2.83;;
14611;SDS011;7392;52.078;11.650;2023-04-25T03:43:07;3.03;;;2.57;;
14611;SDS011;7392;52.078;11.650;2023-04-25T03:45:36;3.80;;;2.53;;
14611;SDS011;7392;52.078;11.650;2023-04-25T03:48:04;3.70;;;2.67;;
14611;SDS011;7392;52.078;11.650;2023-04-25T03:50:34;5.10;;;3.10;;
14611;SDS011;7392;52.078;11.650;2023-04-25T03:53:02;4.00;;;2.57;;
14611;SDS011;7392;52.078;11.650;2023-04-25T03:55:41;5.30;;;3.50;;
14611;SDS011;7392;52.078;11.650;2023-04-25T03:58:09;3.93;;;3.00;;
14611;SDS011;7392;52.078;11.650;2023-04-25T04:06:16;6.13;;;3.97;;
14611;SDS011;7392;52.078;11.650;2023-04-25T04:08:48;4.87;;;3.70;;
14611;SDS011;7392;52.078;11.650;2023-04-25T04:11:16;5.63;;;3.47;;
14611;SDS011;7392;52.078;11.650;2023-04-25T04:13:44;3.70;;;3.30;;
14611;SDS011;7392;52.078;11.650;2023-04-25T04:16:12;4.93;;;2.90;;
14611;SDS011;7392;52.078;11.650;2023-04-25T04:18:40;5.80;;;3.60;;
14611;SDS011;7392;52.078;11.650;2023-04-25T04:21:07;8.90;;;4.33;;
14611;SDS011;7392;52.078;11.650;2023-04-25T04:23:40;7.10;;;3.70;;
14611;SDS011;7392;52.078;11.650;2023-04-25T04:26:09;5.90;;;3.87;;
14611;SDS011;7392;52.078;11.650;2023-04-25T04:29:04;6.67;;;4.00;;
14611;SDS011;7392;52.078;11.650;2023-04-25T04:31:48;7.03;;;3.90;;
14611;SDS011;7392;52.078;11.650;2023-04-25T04:34:17;7.13;;;4.10;;
14611;SDS011;7392;52.078;11.650;2023-04-25T04:36:45;6.70;;;4.43;;
14611;SDS011;7392;52.078;11.650;2023-04-25T04:39:14;8.83;;;4.67;;
14611;SDS011;7392;52.078;11.650;2023-04-25T04:47:38;6.97;;;4.37;;
14611;SDS011;7392;52.078;11.650;2023-04-25T04:50:17;5.77;;;4.13;;
14611;SDS011;7392;52.078;11.650;2023-04-25T04:53:04;11.97;;;5.50;;
14611;SDS011;7392;52.078;11.650;2023-04-25T04:55:47;8.57;;;5.30;;
14611;SDS011;7392;52.078;11.650;2023-04-25T04:58:35;8.80;;;4.83;;
14611;SDS011;7392;52.078;11.650;2023-04-25T05:01:30;8.33;;;5.77;;
14611;SDS011;7392;52.078;11.650;2023-04-25T05:04:16;6.97;;;4.57;;
14611;SDS011;7392;52.078;11.650;2023-04-25T05:06:44;6.60;;;5.03;;
14611;SDS011;7392;52.078;11.650;2023-04-25T05:09:34;12.33;;;6.30;;
14611;SDS011;7392;52.078;11.650;2023-04-25T05:12:08;7.93;;;5.20;;
14611;SDS011;7392;52.078;11.650;2023-04-25T05:14:58;7.60;;;5.33;;
14611;SDS011;7392;52.078;11.650;2023-04-25T05:17:29;8.37;;;5.80;;
14611;SDS011;7392;52.078;11.650;2023-04-25T05:20:17;12.87;;;6.70;;
14611;SDS011;7392;52.078;11.650;2023-04-25T05:23:04;9.63;;;6.80;;
14611;SDS011;7392;52.078;11.650;2023-04-25T05:25:43;7.70;;;5.30;;
14611;SDS011;7392;52.078;11.650;2023-04-25T05:28:22;7.00;;;5.83;;
14611;SDS011;7392;52.078;11.650;2023-04-25T05:31:09;10.27;;;6.83;;
14611;SDS011;7392;52.078;11.650;2023-04-25T05:33:45;12.67;;;6.43;;
14611;SDS011;7392;52.078;11.650;2023-04-25T05:36:13;8.73;;;5.70;;
14611;SDS011;7392;52.078;11.650;2023-04-25T05:38:41;10.60;;;6.73;;
14611;SDS011;7392;52.078;11.650;2023-04-25T05:41:09;7.97;;;6.30;;
14611;SDS011;7392;52.078;11.650;2023-04-25T05:44:16;10.70;;;6.63;;
14611;SDS011;7392;52.078;11.650;2023-04-25T05:46:54;8.83;;;6.00;;
14611;SDS011;7392;52.078;11.650;2023-04-25T05:49:38;9.80;;;6.47;;
14611;SDS011;7392;52.078;11.650;2023-04-25T05:52:29;10.97;;;7.20;;
14611;SDS011;7392;52.078;11.650;2023-04-25T05:55:21;9.43;;;6.40;;
14611;SDS011;7392;52.078;11.650;2023-04-25T05:57:49;7.27;;;6.10;;
14611;SDS011;7392;52.078;11.650;2023-04-25T06:00:18;9.33;;;5.47;;
14611;SDS011;7392;52.078;11.650;2023-04-25T06:02:49;7.00;;;4.60;;
14611;SDS011;7392;52.078;11.650;2023-04-25T06:05:17;4.63;;;4.13;;
14611;SDS011;7392;52.078;11.650;2023-04-25T06:07:46;4.93;;;4.10;;
14611;SDS011;7392;52.078;11.650;2023-04-25T06:10:14;4.30;;;3.63;;
14611;SDS011;7392;52.078;11.650;2023-04-25T06:12:42;6.43;;;3.20;;
14611;SDS011;7392;52.078;11.650;2023-04-25T06:15:10;4.53;;;3.30;;
14611;SDS011;7392;52.078;11.650;2023-04-25T06:17:54;5.20;;;3.03;;
14611;SDS011;7392;52.078;11.650;2023-04-25T06:20:22;3.73;;;2.63;;
14611;SDS011;7392;52.078;11.650;2023-04-25T06:22:52;5.10;;;2.70;;
14611;SDS011;7392;52.078;11.650;2023-04-25T06:25:28;3.07;;;2.37;;
14611;SDS011;7392;52.078;11.650;2023-04-25T06:27:56;6.13;;;2.70;;
14611;SDS011;7392;52.078;11.650;2023-04-25T06:30:24;4.80;;;2.50;;
14611;SDS011;7392;52.078;11.650;2023-04-25T06:32:59;8.70;;;3.03;;
14611;SDS011;7392;52.078;11.650;2023-04-25T06:35:28;7.23;;;2.80;;
14611;SDS011;7392;52.078;11.650;2023-04-25T06:37:56;8.40;;;2.87;;
14611;SDS011;7392;52.078;11.650;2023-04-25T06:40:25;6.90;;;3.07;;
14611;SDS011;7392;52.078;11.650;2023-04-25T06:42:53;7.87;;;3.20;;
14611;SDS011;7392;52.078;11.650;2023-04-25T06:45:45;6.80;;;2.73;;
14611;SDS011;7392;52.078;11.650;2023-04-25T06:48:15;6.83;;;3.07;;
14611;SDS011;7392;52.078;11.650;2023-04-25T06:50:43;7.00;;;2.57;;
14611;SDS011;7392;52.078;11.650;2023-04-25T06:53:11;5.83;;;2.30;;
14611;SDS011;7392;52.078;11.650;2023-04-25T06:55:42;7.97;;;2.73;;
14611;SDS011;7392;52.078;11.650;2023-04-25T06:58:32;7.20;;;3.07;;
14611;SDS011;7392;52.078;11.650;2023-04-25T07:01:09;9.63;;;3.53;;
14611;SDS011;7392;52.078;11.650;2023-04-25T07:03:38;16.40;;;3.80;;
14611;SDS011;7392;52.078;11.650;2023-04-25T07:06:12;13.77;;;4.60;;
14611;SDS011;7392;52.078;11.650;2023-04-25T07:08:40;8.87;;;3.33;;
14611;SDS011;7392;52.078;11.650;2023-04-25T07:11:08;8.53;;;3.40;;
14611;SDS011;7392;52.078;11.650;2023-04-25T07:13:36;9.63;;;3.23;;
14611;SDS011;7392;52.078;11.650;2023-04-25T07:16:04;12.80;;;3.70;;
14611;SDS011;7392;52.078;11.650;2023-04-25T07:18:34;8.77;;;3.00;;
14611;SDS011;7392;52.078;11.650;2023-04-25T07:21:04;10.70;;;3.33;;
14611;SDS011;7392;52.078;11.650;2023-04-25T07:23:33;9.23;;;3.27;;
14611;SDS011;7392;52.078;11.650;2023-04-25T07:26:07;9.10;;;3.63;;
14611;SDS011;7392;52.078;11.650;2023-04-25T07:28:41;9.97;;;3.30;;
14611;SDS011;7392;52.078;11.650;2023-04-25T07:31:10;18.40;;;3.37;;
14611;SDS011;7392;52.078;11.650;2023-04-25T07:33:39;9.80;;;3.40;;
14611;SDS011;7392;52.078;11.650;2023-04-25T07:36:08;9.33;;;2.97;;
14611;SDS011;7392;52.078;11.650;2023-04-25T07:38:36;13.00;;;3.70;;
14611;SDS011;7392;52.078;11.650;2023-04-25T07:41:05;8.20;;;2.77;;
14611;SDS011;7392;52.078;11.650;2023-04-25T07:43:33;8.77;;;3.57;;
14611;SDS011;7392;52.078;11.650;2023-04-25T07:46:02;5.57;;;2.47;;
14611;SDS011;7392;52.078;11.650;2023-04-25T07:48:32;12.10;;;3.57;;
14611;SDS011;7392;52.078;11.650;2023-04-25T07:51:03;9.80;;;2.90;;
14611;SDS011;7392;52.078;11.650;2023-04-25T07:53:34;8.70;;;3.20;;
14611;SDS011;7392;52.078;11.650;2023-04-25T07:56:08;9.60;;;2.97;;
14611;SDS011;7392;52.078;11.650;2023-04-25T07:58:39;8.40;;;3.30;;
14611;SDS011;7392;52.078;11.650;2023-04-25T08:01:09;9.17;;;3.40;;
14611;SDS011;7392;52.078;11.650;2023-04-25T08:03:45;6.43;;;2.60;;
14611;SDS011;7392;52.078;11.650;2023-04-25T08:06:31;5.37;;;2.70;;
14611;SDS011;7392;52.078;11.650;2023-04-25T08:09:07;7.70;;;2.87;;
14611;SDS011;7392;52.078;11.650;2023-04-25T08:11:40;7.80;;;2.67;;
14611;SDS011;7392;52.078;11.650;2023-04-25T08:14:11;8.43;;;2.93;;
14611;SDS011;7392;52.078;11.650;2023-04-25T08:16:41;6.17;;;2.80;;
14611;SDS011;7392;52.078;11.650;2023-04-25T08:19:11;9.60;;;2.77;;
14611;SDS011;7392;52.078;11.650;2023-04-25T08:21:39;9.63;;;2.73;;
14611;SDS011;7392;52.078;11.650;2023-04-25T08:24:13;5.50;;;2.50;;
14611;SDS011;7392;52.078;11.650;2023-04-25T08:26:42;9.33;;;2.83;;
14611;SDS011;7392;52.078;11.650;2023-04-25T08:29:14;6.40;;;2.57;;
14611;SDS011;7392;52.078;11.650;2023-04-25T08:31:43;11.10;;;2.90;;
14611;SDS011;7392;52.078;11.650;2023-04-25T08:34:12;6.20;;;2.27;;
14611;SDS011;7392;52.078;11.650;2023-04-25T08:36:47;9.10;;;2.90;;
14611;SDS011;7392;52.078;11.650;2023-04-25T08:39:37;8.07;;;3.20;;
14611;SDS011;7392;52.078;11.650;2023-04-25T08:42:19;8.77;;;2.70;;
14611;SDS011;7392;52.078;11.650;2023-04-25T08:44:49;8.97;;;2.80;;
14611;SDS011;7392;52.078;11.650;2023-04-25T08:47:18;7.97;;;2.60;;
14611;SDS011;7392;52.078;11.650;2023-04-25T08:49:55;10.53;;;3.30;;
14611;SDS011;7392;52.078;11.650;2023-04-25T08:52:23;7.60;;;2.33;;
14611;SDS011;7392;52.078;11.650;2023-04-25T08:54:56;5.60;;;1.90;;
14611;SDS011;7392;52.078;11.650;2023-04-25T08:57:27;9.93;;;2.87;;
14611;SDS011;7392;52.078;11.650;2023-04-25T08:59:55;7.00;;;2.47;;
14611;SDS011;7392;52.078;11.650;2023-04-25T09:02:26;5.50;;;2.40;;
14611;SDS011;7392;52.078;11.650;2023-04-25T09:04:55;5.00;;;2.23;;
14611;SDS011;7392;52.078;11.650;2023-04-25T09:07:25;6.10;;;2.10;;
14611;SDS011;7392;52.078;11.650;2023-04-25T09:09:53;7.43;;;2.40;;
14611;SDS011;7392;52.078;11.650;2023-04-25T09:12:26;6.73;;;2.40;;
14611;SDS011;7392;52.078;11.650;2023-04-25T09:15:01;6.77;;;2.27;;
14611;SDS011;7392;52.078;11.650;2023-04-25T09:18:00;6.83;;;2.60;;
14611;SDS011;7392;52.078;11.650;2023-04-25T09:20:33;7.10;;;2.30;;
14611;SDS011;7392;52.078;11.650;2023-04-25T09:23:26;7.07;;;1.93;;
14611;SDS011;7392;52.078;11.650;2023-04-25T09:25:53;5.83;;;2.20;;
14611;SDS011;7392;52.078;11.650;2023-04-25T09:28:26;7.03;;;2.47;;
14611;SDS011;7392;52.078;11.650;2023-04-25T09:30:57;8.53;;;2.20;;
14611;SDS011;7392;52.078;11.650;2023-04-25T09:33:32;5.67;;;2.27;;
14611;SDS011;7392;52.078;11.650;2023-04-25T09:36:03;7.93;;;2.30;;
14611;SDS011;7392;52.078;11.650;2023-04-25T09:38:51;9.00;;;2.20;;
14611;SDS011;7392;52.078;11.650;2023-04-25T09:41:27;5.27;;;1.90;;
14611;SDS011;7392;52.078;11.650;2023-04-25T09:44:00;4.50;;;1.80;;
14611;SDS011;7392;52.078;11.650;2023-04-25T09:46:34;6.43;;;2.37;;
14611;SDS011;7392;52.078;11.650;2023-04-25T09:49:11;5.53;;;2.10;;
14611;SDS011;7392;52.078;11.650;2023-04-25T09:51:55;4.00;;;2.00;;
14611;SDS011;7392;52.078;11.650;2023-04-25T09:54:27;7.67;;;2.13;;
14611;SDS011;7392;52.078;11.650;2023-04-25T09:57:10;6.80;;;2.50;;
14611;SDS011;7392;52.078;11.650;2023-04-25T09:59:43;7.30;;;2.10;;
14611;SDS011;7392;52.078;11.650;2023-04-25T10:02:12;4.67;;;1.83;;
14611;SDS011;7392;52.078;11.650;2023-04-25T10:04:47;7.23;;;2.10;;
14611;SDS011;7392;52.078;11.650;2023-04-25T10:07:22;6.87;;;2.80;;
14611;SDS011;7392;52.078;11.650;2023-04-25T10:09:54;7.17;;;2.60;;
14611;SDS011;7392;52.078;11.650;2023-04-25T10:12:26;7.43;;;2.90;;
14611;SDS011;7392;52.078;11.650;2023-04-25T10:14:56;7.03;;;2.40;;
14611;SDS011;7392;52.078;11.650;2023-04-25T10:17:25;6.10;;;2.00;;
14611;SDS011;7392;52.078;11.650;2023-04-25T10:19:55;4.57;;;1.90;;
14611;SDS011;7392;52.078;11.650;2023-04-25T10:22:23;6.27;;;2.67;;
14611;SDS011;7392;52.078;11.650;2023-04-25T10:24:58;5.17;;;2.00;;
14611;SDS011;7392;52.078;11.650;2023-04-25T10:27:26;4.00;;;1.93;;
14611;SDS011;7392;52.078;11.650;2023-04-25T10:30:03;6.07;;;2.37;;
14611;SDS011;7392;52.078;11.650;2023-04-25T10:32:32;4.50;;;1.87;;
14611;SDS011;7392;52.078;11.650;2023-04-25T10:35:10;5.27;;;1.90;;
14611;SDS011;7392;52.078;11.650;2023-04-25T10:40:27;6.37;;;2.83;;
14611;SDS011;7392;52.078;11.650;2023-04-25T10:42:55;7.77;;;2.53;;
14611;SDS011;7392;52.078;11.650;2023-04-25T10:45:24;4.73;;;2.30;;
14611;SDS011;7392;52.078;11.650;2023-04-25T10:47:53;8.47;;;2.23;;
14611;SDS011;7392;52.078;11.650;2023-04-25T10:50:22;3.83;;;2.07;;
14611;SDS011;7392;52.078;11.650;2023-04-25T10:53:13;4.70;;;1.87;;
14611;SDS011;7392;52.078;11.650;2023-04-25T10:58:25;7.20;;;2.47;;
14611;SDS011;7392;52.078;11.650;2023-04-25T11:00:54;3.93;;;1.77;;
14611;SDS011;7392;52.078;11.650;2023-04-25T11:03:23;5.30;;;1.97;;
14611;SDS011;7392;52.078;11.650;2023-04-25T11:05:51;5.43;;;2.40;;
14611;SDS011;7392;52.078;11.650;2023-04-25T11:08:25;5.20;;;2.10;;
14611;SDS011;7392;52.078;11.650;2023-04-25T11:11:04;4.57;;;2.20;;
14611;SDS011;7392;52.078;11.650;2023-04-25T11:13:32;5.73;;;2.43;;
14611;SDS011;7392;52.078;11.650;2023-04-25T11:16:02;7.93;;;2.23;;
14611;SDS011;7392;52.078;11.650;2023-04-25T11:18:40;5.30;;;2.20;;
14611;SDS011;7392;52.078;11.650;2023-04-25T11:21:08;6.87;;;2.10;;
14611;SDS011;7392;52.078;11.650;2023-04-25T11:23:36;6.53;;;2.07;;
14611;SDS011;7392;52.078;11.650;2023-04-25T11:26:04;4.37;;;1.73;;
14611;SDS011;7392;52.078;11.650;2023-04-25T11:28:32;3.57;;;2.10;;
14611;SDS011;7392;52.078;11.650;2023-04-25T11:31:02;5.87;;;2.00;;
14611;SDS011;7392;52.078;11.650;2023-04-25T11:33:30;5.73;;;1.80;;
14611;SDS011;7392;52.078;11.650;2023-04-25T11:35:58;5.20;;;1.87;;
14611;SDS011;7392;52.078;11.650;2023-04-25T11:38:26;4.40;;;1.60;;
14611;SDS011;7392;52.078;11.650;2023-04-25T11:40:54;4.40;;;1.90;;
14611;SDS011;7392;52.078;11.650;2023-04-25T11:43:22;4.17;;;2.00;;
14611;SDS011;7392;52.078;11.650;2023-04-25T11:45:50;5.63;;;1.90;;
14611;SDS011;7392;52.078;11.650;2023-04-25T11:48:20;6.53;;;2.00;;
14611;SDS011;7392;52.078;11.650;2023-04-25T11:50:51;5.37;;;2.10;;
14611;SDS011;7392;52.078;11.650;2023-04-25T11:53:21;3.73;;;1.73;;
14611;SDS011;7392;52.078;11.650;2023-04-25T11:55:51;5.93;;;2.43;;
14611;SDS011;7392;52.078;11.650;2023-04-25T11:58:19;4.70;;;1.90;;
14611;SDS011;7392;52.078;11.650;2023-04-25T12:00:47;6.10;;;2.00;;
14611;SDS011;7392;52.078;11.650;2023-04-25T12:03:17;6.37;;;2.20;;
14611;SDS011;7392;52.078;11.650;2023-04-25T12:05:46;5.20;;;2.23;;
14611;SDS011;7392;52.078;11.650;2023-04-25T12:08:15;5.83;;;2.30;;
14611;SDS011;7392;52.078;11.650;2023-04-25T12:10:44;5.30;;;2.10;;
14611;SDS011;7392;52.078;11.650;2023-04-25T12:13:19;5.67;;;2.07;;
14611;SDS011;7392;52.078;11.650;2023-04-25T12:15:48;5.47;;;2.10;;
14611;SDS011;7392;52.078;11.650;2023-04-25T12:18:18;5.17;;;1.93;;
14611;SDS011;7392;52.078;11.650;2023-04-25T12:20:48;4.80;;;1.70;;
14611;SDS011;7392;52.078;11.650;2023-04-25T12:23:16;3.30;;;1.87;;
14611;SDS011;7392;52.078;11.650;2023-04-25T12:25:44;3.40;;;1.73;;
14611;SDS011;7392;52.078;11.650;2023-04-25T12:28:14;6.63;;;1.80;;
14611;SDS011;7392;52.078;11.650;2023-04-25T12:30:52;3.87;;;1.60;;
14611;SDS011;7392;52.078;11.650;2023-04-25T12:33:21;2.17;;;1.57;;
14611;SDS011;7392;52.078;11.650;2023-04-25T12:35:50;5.40;;;1.60;;
14611;SDS011;7392;52.078;11.650;2023-04-25T12:38:22;3.53;;;1.70;;
14611;SDS011;7392;52.078;11.650;2023-04-25T12:40:53;4.13;;;1.63;;
14611;SDS011;7392;52.078;11.650;2023-04-25T12:43:22;6.20;;;1.97;;
14611;SDS011;7392;52.078;11.650;2023-04-25T12:45:50;5.07;;;1.63;;
14611;SDS011;7392;52.078;11.650;2023-04-25T12:48:19;3.10;;;1.60;;
14611;SDS011;7392;52.078;11.650;2023-04-25T12:50:48;6.33;;;2.20;;
14611;SDS011;7392;52.078;11.650;2023-04-25T12:53:18;4.10;;;1.83;;
14611;SDS011;7392;52.078;11.650;2023-04-25T12:55:47;3.67;;;1.40;;
14611;SDS011;7392;52.078;11.650;2023-04-25T12:58:17;3.60;;;1.30;;
14611;SDS011;7392;52.078;11.650;2023-04-25T13:00:46;6.20;;;1.77;;
14611;SDS011;7392;52.078;11.650;2023-04-25T13:03:14;6.00;;;1.60;;
14611;SDS011;7392;52.078;11.650;2023-04-25T13:05:43;4.90;;;1.70;;
14611;SDS011;7392;52.078;11.650;2023-04-25T13:08:11;4.93;;;1.83;;
14611;SDS011;7392;52.078;11.650;2023-04-25T13:10:40;4.03;;;1.80;;
14611;SDS011;7392;52.078;11.650;2023-04-25T13:13:08;2.80;;;1.50;;
14611;SDS011;7392;52.078;11.650;2023-04-25T13:15:41;4.73;;;1.57;;
14611;SDS011;7392;52.078;11.650;2023-04-25T13:18:09;3.40;;;1.40;;
14611;SDS011;7392;52.078;11.650;2023-04-25T13:20:37;4.17;;;1.50;;
14611;SDS011;7392;52.078;11.650;2023-04-25T13:23:05;3.63;;;1.43;;
14611;SDS011;7392;52.078;11.650;2023-04-25T13:25:34;3.53;;;1.67;;
14611;SDS011;7392;52.078;11.650;2023-04-25T13:28:03;3.80;;;1.67;;
14611;SDS011;7392;52.078;11.650;2023-04-25T13:30:31;5.07;;;1.50;;
14611;SDS011;7392;52.078;11.650;2023-04-25T13:32:59;2.80;;;1.30;;
14611;SDS011;7392;52.078;11.650;2023-04-25T13:35:30;3.20;;;1.50;;
14611;SDS011;7392;52.078;11.650;2023-04-25T13:37:58;2.90;;;1.73;;
14611;SDS011;7392;52.078;11.650;2023-04-25T13:40:26;4.30;;;1.83;;
14611;SDS011;7392;52.078;11.650;2023-04-25T13:42:54;2.80;;;1.40;;
14611;SDS011;7392;52.078;11.650;2023-04-25T13:45:24;3.90;;;1.50;;
14611;SDS011;7392;52.078;11.650;2023-04-25T13:47:53;4.60;;;1.57;;
14611;SDS011;7392;52.078;11.650;2023-04-25T13:50:21;2.57;;;1.30;;
14611;SDS011;7392;52.078;11.650;2023-04-25T13:52:49;3.30;;;1.40;;
14611;SDS011;7392;52.078;11.650;2023-04-25T13:55:17;3.23;;;1.40;;
14611;SDS011;7392;52.078;11.650;2023-04-25T13:57:45;2.53;;;0.97;;
14611;SDS011;7392;52.078;11.650;2023-04-25T14:00:13;2.87;;;1.10;;
14611;SDS011;7392;52.078;11.650;2023-04-25T14:02:44;2.00;;;1.23;;
14611;SDS011;7392;52.078;11.650;2023-04-25T14:05:15;3.07;;;1.40;;
14611;SDS011;7392;52.078;11.650;2023-04-25T14:07:43;4.00;;;1.20;;
14611;SDS011;7392;52.078;11.650;2023-04-25T14:10:11;5.90;;;1.60;;
14611;SDS011;7392;52.078;11.650;2023-04-25T14:12:39;2.13;;;1.13;;
14611;SDS011;7392;52.078;11.650;2023-04-25T14:15:07;3.90;;;1.53;;
14611;SDS011;7392;52.078;11.650;2023-04-25T14:17:35;4.47;;;1.60;;
14611;SDS011;7392;52.078;11.650;2023-04-25T14:20:06;2.83;;;1.23;;
14611;SDS011;7392;52.078;11.650;2023-04-25T14:22:37;2.60;;;1.30;;
14611;SDS011;7392;52.078;11.650;2023-04-25T14:25:09;4.60;;;1.60;;
14611;SDS011;7392;52.078;11.650;2023-04-25T14:27:37;3.37;;;1.10;;
14611;SDS011;7392;52.078;11.650;2023-04-25T14:30:05;4.20;;;1.53;;
14611;SDS011;7392;52.078;11.650;2023-04-25T14:32:35;1.60;;;0.80;;
14611;SDS011;7392;52.078;11.650;2023-04-25T14:35:06;4.30;;;1.70;;
14611;SDS011;7392;52.078;11.650;2023-04-25T14:37:35;3.83;;;1.70;;
14611;SDS011;7392;52.078;11.650;2023-04-25T14:40:03;3.20;;;1.20;;
14611;SDS011;7392;52.078;11.650;2023-04-25T14:42:33;2.23;;;1.00;;
14611;SDS011;7392;52.078;11.650;2023-04-25T14:45:02;1.80;;;1.03;;
14611;SDS011;7392;52.078;11.650;2023-04-25T14:47:30;2.93;;;1.33;;
14611;SDS011;7392;52.078;11.650;2023-04-25T14:49:58;3.07;;;1.50;;
14611;SDS011;7392;52.078;11.650;2023-04-25T14:52:29;3.93;;;1.50;;
14611;SDS011;7392;52.078;11.650;2023-04-25T14:54:57;2.73;;;1.20;;
14611;SDS011;7392;52.078;11.650;2023-04-25T14:57:26;2.73;;;1.30;;
14611;SDS011;7392;52.078;11.650;2023-04-25T14:59:54;4.47;;;1.63;;
14611;SDS011;7392;52.078;11.650;2023-04-25T15:02:23;5.27;;;1.47;;
14611;SDS011;7392;52.078;11.650;2023-04-25T15:04:51;3.10;;;1.47;;
14611;SDS011;7392;52.078;11.650;2023-04-25T15:07:19;3.53;;;1.30;;
14611;SDS011;7392;52.078;11.650;2023-04-25T15:09:48;2.93;;;1.30;;
14611;SDS011;7392;52.078;11.650;2023-04-25T15:12:16;2.87;;;1.20;;
14611;SDS011;7392;52.078;11.650;2023-04-25T15:14:44;1.53;;;1.10;;
14611;SDS011;7392;52.078;11.650;2023-04-25T15:17:12;2.97;;;1.03;;
14611;SDS011;7392;52.078;11.650;2023-04-25T15:19:41;3.50;;;1.20;;
14611;SDS011;7392;52.078;11.650;2023-04-25T15:22:09;2.07;;;1.00;;
14611;SDS011;7392;52.078;11.650;2023-04-25T15:24:37;2.87;;;1.10;;
14611;SDS011;7392;52.078;11.650;2023-04-25T15:27:06;1.40;;;1.10;;
14611;SDS011;7392;52.078;11.650;2023-04-25T15:29:34;3.67;;;1.20;;
14611;SDS011;7392;52.078;11.650;2023-04-25T15:32:03;2.33;;;1.10;;
14611;SDS011;7392;52.078;11.650;2023-04-25T15:34:31;2.30;;;1.00;;
14611;SDS011;7392;52.078;11.650;2023-04-25T15:37:00;2.53;;;1.10;;
14611;SDS011;7392;52.078;11.650;2023-04-25T15:39:28;2.23;;;1.10;;